sensor_id;sensor_type;location;lat;lon;timestamp;P1;durP1;ratioP1;P2;durP2;ratioP2
6547;SDS011;3307;52.416;16.862;2022-10-04T00:04:53;10.43;;;4.10;;
6547;SDS011;3307;52.416;16.862;2022-10-04T00:07:30;9.02;;;4.10;;
6547;SDS011;3307;52.416;16.862;2022-10-04T00:13:00;7.10;;;3.20;;
6547;SDS011;3307;52.416;16.862;2022-10-04T00:15:29;12.40;;;4.30;;
6547;SDS011;3307;52.416;16.862;2022-10-04T00:25:52;9.02;;;3.70;;
6547;SDS011;3307;52.416;16.862;2022-10-04T00:28:26;5.20;;;2.92;;
6547;SDS011;3307;52.416;16.862;2022-10-04T00:31:14;15.55;;;4.03;;
6547;SDS011;3307;52.416;16.862;2022-10-04T00:33:42;11.55;;;3.70;;
6547;SDS011;3307;52.416;16.862;2022-10-04T00:41:27;8.40;;;3.63;;
6547;SDS011;3307;52.416;16.862;2022-10-04T00:43:53;6.07;;;3.40;;
6547;SDS011;3307;52.416;16.862;2022-10-04T00:46:21;8.07;;;3.80;;
6547;SDS011;3307;52.416;16.862;2022-10-04T00:51:18;7.10;;;3.43;;
6547;SDS011;3307;52.416;16.862;2022-10-04T00:53:49;9.40;;;3.80;;
6547;SDS011;3307;52.416;16.862;2022-10-04T00:56:27;15.63;;;4.18;;
6547;SDS011;3307;52.416;16.862;2022-10-04T00:59:16;11.00;;;3.80;;
6547;SDS011;3307;52.416;16.862;2022-10-04T01:01:48;10.38;;;3.50;;
6547;SDS011;3307;52.416;16.862;2022-10-04T01:04:26;8.52;;;4.28;;
6547;SDS011;3307;52.416;16.862;2022-10-04T01:06:56;12.90;;;3.67;;
6547;SDS011;3307;52.416;16.862;2022-10-04T01:09:22;12.40;;;3.45;;
6547;SDS011;3307;52.416;16.862;2022-10-04T01:11:54;12.38;;;4.18;;
6547;SDS011;3307;52.416;16.862;2022-10-04T01:14:27;11.88;;;4.43;;
6547;SDS011;3307;52.416;16.862;2022-10-04T01:16:56;13.20;;;4.60;;
6547;SDS011;3307;52.416;16.862;2022-10-04T01:22:32;10.53;;;3.80;;
6547;SDS011;3307;52.416;16.862;2022-10-04T01:24:39;7.75;;;4.25;;
6547;SDS011;3307;52.416;16.862;2022-10-04T01:27:51;10.27;;;3.75;;
6547;SDS011;3307;52.416;16.862;2022-10-04T01:29:56;8.65;;;3.50;;
6547;SDS011;3307;52.416;16.862;2022-10-04T01:32:23;8.07;;;3.92;;
6547;SDS011;3307;52.416;16.862;2022-10-04T01:34:48;7.37;;;3.60;;
6547;SDS011;3307;52.416;16.862;2022-10-04T01:37:14;11.37;;;3.87;;
6547;SDS011;3307;52.416;16.862;2022-10-04T01:39:39;11.23;;;4.20;;
6547;SDS011;3307;52.416;16.862;2022-10-04T01:42:07;11.10;;;4.13;;
6547;SDS011;3307;52.416;16.862;2022-10-04T01:44:53;11.38;;;3.55;;
6547;SDS011;3307;52.416;16.862;2022-10-04T01:47:32;7.30;;;4.05;;
6547;SDS011;3307;52.416;16.862;2022-10-04T01:50:02;9.32;;;4.32;;
6547;SDS011;3307;52.416;16.862;2022-10-04T01:52:34;7.75;;;4.30;;
6547;SDS011;3307;52.416;16.862;2022-10-04T01:55:05;14.27;;;4.35;;
6547;SDS011;3307;52.416;16.862;2022-10-04T01:57:35;12.48;;;4.57;;
6547;SDS011;3307;52.416;16.862;2022-10-04T02:00:04;10.27;;;4.65;;
6547;SDS011;3307;52.416;16.862;2022-10-04T02:02:35;10.57;;;4.22;;
6547;SDS011;3307;52.416;16.862;2022-10-04T02:05:07;12.07;;;3.70;;
6547;SDS011;3307;52.416;16.862;2022-10-04T02:07:35;8.38;;;3.70;;
6547;SDS011;3307;52.416;16.862;2022-10-04T02:10:04;8.63;;;4.32;;
6547;SDS011;3307;52.416;16.862;2022-10-04T02:12:34;14.68;;;4.25;;
6547;SDS011;3307;52.416;16.862;2022-10-04T02:15:02;6.07;;;3.53;;
6547;SDS011;3307;52.416;16.862;2022-10-04T02:17:31;10.63;;;3.83;;
6547;SDS011;3307;52.416;16.862;2022-10-04T02:19:57;7.75;;;3.60;;
6547;SDS011;3307;52.416;16.862;2022-10-04T02:22:24;9.55;;;3.88;;
6547;SDS011;3307;52.416;16.862;2022-10-04T02:24:50;11.05;;;4.10;;
6547;SDS011;3307;52.416;16.862;2022-10-04T02:27:17;12.88;;;3.60;;
6547;SDS011;3307;52.416;16.862;2022-10-04T02:29:43;10.63;;;3.97;;
6547;SDS011;3307;52.416;16.862;2022-10-04T02:32:09;9.53;;;4.40;;
6547;SDS011;3307;52.416;16.862;2022-10-04T02:34:54;7.93;;;3.55;;
6547;SDS011;3307;52.416;16.862;2022-10-04T02:37:20;11.38;;;3.97;;
6547;SDS011;3307;52.416;16.862;2022-10-04T02:39:49;11.95;;;3.83;;
6547;SDS011;3307;52.416;16.862;2022-10-04T02:42:21;12.93;;;4.80;;
6547;SDS011;3307;52.416;16.862;2022-10-04T02:44:59;11.50;;;3.45;;
6547;SDS011;3307;52.416;16.862;2022-10-04T02:47:51;9.88;;;3.63;;
6547;SDS011;3307;52.416;16.862;2022-10-04T02:50:32;11.43;;;4.20;;
6547;SDS011;3307;52.416;16.862;2022-10-04T02:53:11;12.95;;;3.78;;
6547;SDS011;3307;52.416;16.862;2022-10-04T02:56:16;6.22;;;3.22;;
6547;SDS011;3307;52.416;16.862;2022-10-04T02:58:42;10.25;;;4.28;;
6547;SDS011;3307;52.416;16.862;2022-10-04T03:01:13;11.40;;;3.53;;
6547;SDS011;3307;52.416;16.862;2022-10-04T03:03:43;10.40;;;4.80;;
6547;SDS011;3307;52.416;16.862;2022-10-04T03:06:10;11.98;;;4.25;;
6547;SDS011;3307;52.416;16.862;2022-10-04T03:11:07;12.40;;;4.22;;
6547;SDS011;3307;52.416;16.862;2022-10-04T03:13:33;11.50;;;4.65;;
6547;SDS011;3307;52.416;16.862;2022-10-04T03:16:01;7.13;;;3.65;;
6547;SDS011;3307;52.416;16.862;2022-10-04T03:18:26;11.60;;;4.50;;
6547;SDS011;3307;52.416;16.862;2022-10-04T03:20:53;13.90;;;4.65;;
6547;SDS011;3307;52.416;16.862;2022-10-04T03:23:19;10.60;;;5.30;;
6547;SDS011;3307;52.416;16.862;2022-10-04T03:26:46;7.50;;;3.87;;
6547;SDS011;3307;52.416;16.862;2022-10-04T03:28:46;11.35;;;4.53;;
6547;SDS011;3307;52.416;16.862;2022-10-04T03:31:12;12.97;;;5.10;;
6547;SDS011;3307;52.416;16.862;2022-10-04T03:33:38;9.38;;;4.55;;
6547;SDS011;3307;52.416;16.862;2022-10-04T03:36:04;13.97;;;4.70;;
6547;SDS011;3307;52.416;16.862;2022-10-04T03:38:29;9.97;;;3.97;;
6547;SDS011;3307;52.416;16.862;2022-10-04T03:40:59;9.48;;;4.05;;
6547;SDS011;3307;52.416;16.862;2022-10-04T03:43:26;10.65;;;4.07;;
6547;SDS011;3307;52.416;16.862;2022-10-04T03:45:55;15.90;;;6.15;;
6547;SDS011;3307;52.416;16.862;2022-10-04T03:48:29;11.18;;;4.47;;
6547;SDS011;3307;52.416;16.862;2022-10-04T03:50:56;11.75;;;4.95;;
6547;SDS011;3307;52.416;16.862;2022-10-04T03:53:29;9.10;;;4.60;;
6547;SDS011;3307;52.416;16.862;2022-10-04T03:55:59;12.40;;;4.97;;
6547;SDS011;3307;52.416;16.862;2022-10-04T03:58:25;8.45;;;3.78;;
6547;SDS011;3307;52.416;16.862;2022-10-04T04:03:28;13.52;;;5.32;;
6547;SDS011;3307;52.416;16.862;2022-10-04T04:05:56;14.68;;;5.57;;
6547;SDS011;3307;52.416;16.862;2022-10-04T04:11:00;12.38;;;5.80;;
6547;SDS011;3307;52.416;16.862;2022-10-04T04:13:29;8.68;;;4.93;;
6547;SDS011;3307;52.416;16.862;2022-10-04T04:15:56;13.27;;;6.75;;
6547;SDS011;3307;52.416;16.862;2022-10-04T04:18:26;16.17;;;6.78;;
6547;SDS011;3307;52.416;16.862;2022-10-04T04:20:54;15.25;;;7.28;;
6547;SDS011;3307;52.416;16.862;2022-10-04T04:23:36;11.85;;;6.30;;
6547;SDS011;3307;52.416;16.862;2022-10-04T04:28:43;10.40;;;6.30;;
6547;SDS011;3307;52.416;16.862;2022-10-04T04:33:55;12.63;;;6.88;;
6547;SDS011;3307;52.416;16.862;2022-10-04T04:36:23;13.43;;;7.40;;
6547;SDS011;3307;52.416;16.862;2022-10-04T04:38:49;11.20;;;7.03;;
6547;SDS011;3307;52.416;16.862;2022-10-04T04:41:33;19.23;;;7.78;;
6547;SDS011;3307;52.416;16.862;2022-10-04T04:43:59;13.30;;;7.55;;
6547;SDS011;3307;52.416;16.862;2022-10-04T04:46:25;20.65;;;8.07;;
6547;SDS011;3307;52.416;16.862;2022-10-04T04:48:55;11.50;;;7.50;;
6547;SDS011;3307;52.416;16.862;2022-10-04T04:51:25;15.27;;;7.60;;
6547;SDS011;3307;52.416;16.862;2022-10-04T04:53:50;14.60;;;7.90;;
6547;SDS011;3307;52.416;16.862;2022-10-04T04:56:17;12.70;;;7.07;;
6547;SDS011;3307;52.416;16.862;2022-10-04T04:58:46;12.90;;;9.15;;
6547;SDS011;3307;52.416;16.862;2022-10-04T05:06:33;26.10;;;9.05;;
6547;SDS011;3307;52.416;16.862;2022-10-04T05:08:59;10.95;;;7.40;;
6547;SDS011;3307;52.416;16.862;2022-10-04T05:11:26;15.67;;;8.07;;
6547;SDS011;3307;52.416;16.862;2022-10-04T05:13:59;18.60;;;7.63;;
6547;SDS011;3307;52.416;16.862;2022-10-04T05:19:45;13.40;;;6.20;;
6547;SDS011;3307;52.416;16.862;2022-10-04T05:21:53;13.82;;;7.07;;
6547;SDS011;3307;52.416;16.862;2022-10-04T05:27:02;14.57;;;7.28;;
6547;SDS011;3307;52.416;16.862;2022-10-04T05:29:32;12.15;;;6.93;;
6547;SDS011;3307;52.416;16.862;2022-10-04T05:34:52;10.15;;;6.15;;
6547;SDS011;3307;52.416;16.862;2022-10-04T05:42:56;11.82;;;7.00;;
6547;SDS011;3307;52.416;16.862;2022-10-04T05:45:24;12.82;;;6.82;;
6547;SDS011;3307;52.416;16.862;2022-10-04T05:47:55;14.80;;;7.75;;
6547;SDS011;3307;52.416;16.862;2022-10-04T05:50:29;11.32;;;5.80;;
6547;SDS011;3307;52.416;16.862;2022-10-04T05:55:51;17.65;;;7.22;;
6547;SDS011;3307;52.416;16.862;2022-10-04T06:01:24;14.23;;;6.53;;
6547;SDS011;3307;52.416;16.862;2022-10-04T06:04:00;13.65;;;6.78;;
6547;SDS011;3307;52.416;16.862;2022-10-04T06:06:38;11.65;;;6.15;;
6547;SDS011;3307;52.416;16.862;2022-10-04T06:11:57;9.57;;;6.80;;
6547;SDS011;3307;52.416;16.862;2022-10-04T06:20:06;10.55;;;6.60;;
6547;SDS011;3307;52.416;16.862;2022-10-04T06:22:52;14.30;;;6.65;;
6547;SDS011;3307;52.416;16.862;2022-10-04T06:25:23;19.45;;;6.90;;
6547;SDS011;3307;52.416;16.862;2022-10-04T06:30:38;11.18;;;6.05;;
6547;SDS011;3307;52.416;16.862;2022-10-04T06:42:06;10.57;;;5.80;;
6547;SDS011;3307;52.416;16.862;2022-10-04T06:44:47;11.98;;;6.10;;
6547;SDS011;3307;52.416;16.862;2022-10-04T06:57:35;7.45;;;5.30;;
6547;SDS011;3307;52.416;16.862;2022-10-04T07:00:08;13.48;;;6.20;;
6547;SDS011;3307;52.416;16.862;2022-10-04T07:02:39;10.52;;;5.57;;
6547;SDS011;3307;52.416;16.862;2022-10-04T07:05:26;8.40;;;5.55;;
6547;SDS011;3307;52.416;16.862;2022-10-04T07:08:00;8.52;;;6.07;;
6547;SDS011;3307;52.416;16.862;2022-10-04T07:13:09;12.60;;;6.00;;
6547;SDS011;3307;52.416;16.862;2022-10-04T07:18:10;13.30;;;6.32;;
6547;SDS011;3307;52.416;16.862;2022-10-04T07:20:39;14.10;;;6.53;;
6547;SDS011;3307;52.416;16.862;2022-10-04T07:23:07;8.70;;;5.63;;
6547;SDS011;3307;52.416;16.862;2022-10-04T07:25:41;10.32;;;5.25;;
6547;SDS011;3307;52.416;16.862;2022-10-04T07:33:21;14.00;;;5.60;;
6547;SDS011;3307;52.416;16.862;2022-10-04T07:35:50;7.50;;;5.30;;
6547;SDS011;3307;52.416;16.862;2022-10-04T07:38:36;11.93;;;5.03;;
6547;SDS011;3307;52.416;16.862;2022-10-04T07:41:25;11.98;;;6.07;;
6547;SDS011;3307;52.416;16.862;2022-10-04T07:44:04;9.52;;;4.88;;
6547;SDS011;3307;52.416;16.862;2022-10-04T07:46:43;12.65;;;5.15;;
6547;SDS011;3307;52.416;16.862;2022-10-04T07:49:19;9.05;;;5.45;;
6547;SDS011;3307;52.416;16.862;2022-10-04T07:52:11;13.80;;;5.35;;
6547;SDS011;3307;52.416;16.862;2022-10-04T07:54:55;8.43;;;4.68;;
6547;SDS011;3307;52.416;16.862;2022-10-04T08:01:00;9.52;;;4.75;;
6547;SDS011;3307;52.416;16.862;2022-10-04T08:06:32;6.90;;;4.90;;
6547;SDS011;3307;52.416;16.862;2022-10-04T08:09:09;9.65;;;4.32;;
6547;SDS011;3307;52.416;16.862;2022-10-04T08:17:32;7.70;;;5.45;;
6547;SDS011;3307;52.416;16.862;2022-10-04T08:39:30;6.75;;;4.30;;
6547;SDS011;3307;52.416;16.862;2022-10-04T08:48:14;6.97;;;3.92;;
6547;SDS011;3307;52.416;16.862;2022-10-04T09:10:37;5.67;;;3.30;;
6547;SDS011;3307;52.416;16.862;2022-10-04T09:26:30;6.50;;;3.45;;
6547;SDS011;3307;52.416;16.862;2022-10-04T09:29:19;4.57;;;3.20;;
6547;SDS011;3307;52.416;16.862;2022-10-04T09:32:16;5.47;;;3.67;;
6547;SDS011;3307;52.416;16.862;2022-10-04T09:37:45;6.47;;;3.78;;
6547;SDS011;3307;52.416;16.862;2022-10-04T09:43:22;5.20;;;3.05;;
6547;SDS011;3307;52.416;16.862;2022-10-04T09:46:24;8.02;;;3.30;;
6547;SDS011;3307;52.416;16.862;2022-10-04T09:52:08;5.70;;;3.40;;
6547;SDS011;3307;52.416;16.862;2022-10-04T09:55:00;6.68;;;3.00;;
6547;SDS011;3307;52.416;16.862;2022-10-04T10:00:45;4.90;;;2.95;;
6547;SDS011;3307;52.416;16.862;2022-10-04T10:05:54;6.90;;;3.22;;
6547;SDS011;3307;52.416;16.862;2022-10-04T10:14:52;5.63;;;3.30;;
6547;SDS011;3307;52.416;16.862;2022-10-04T10:23:22;4.70;;;3.33;;
6547;SDS011;3307;52.416;16.862;2022-10-04T10:37:08;4.95;;;3.70;;
6547;SDS011;3307;52.416;16.862;2022-10-04T10:42:50;3.55;;;2.50;;
6547;SDS011;3307;52.416;16.862;2022-10-04T10:57:02;6.03;;;2.90;;
6547;SDS011;3307;52.416;16.862;2022-10-04T11:02:48;6.20;;;3.00;;
6547;SDS011;3307;52.416;16.862;2022-10-04T11:08:48;6.45;;;3.40;;
6547;SDS011;3307;52.416;16.862;2022-10-04T11:34:29;5.78;;;2.70;;
6547;SDS011;3307;52.416;16.862;2022-10-04T11:37:16;4.60;;;2.33;;
6547;SDS011;3307;52.416;16.862;2022-10-04T11:39:53;5.05;;;2.33;;
6547;SDS011;3307;52.416;16.862;2022-10-04T11:42:40;3.97;;;2.20;;
6547;SDS011;3307;52.416;16.862;2022-10-04T11:56:42;4.80;;;2.77;;
6547;SDS011;3307;52.416;16.862;2022-10-04T12:02:05;6.57;;;2.70;;
6547;SDS011;3307;52.416;16.862;2022-10-04T12:04:46;3.03;;;1.80;;
6547;SDS011;3307;52.416;16.862;2022-10-04T12:32:25;4.07;;;2.33;;
6547;SDS011;3307;52.416;16.862;2022-10-04T12:42:57;2.67;;;2.30;;
6547;SDS011;3307;52.416;16.862;2022-10-04T12:50:47;4.65;;;2.50;;
6547;SDS011;3307;52.416;16.862;2022-10-04T12:53:50;6.10;;;2.67;;
6547;SDS011;3307;52.416;16.862;2022-10-04T13:02:08;5.50;;;2.15;;
6547;SDS011;3307;52.416;16.862;2022-10-04T13:10:40;4.35;;;2.33;;
6547;SDS011;3307;52.416;16.862;2022-10-04T13:24:23;5.90;;;2.20;;
6547;SDS011;3307;52.416;16.862;2022-10-04T13:32:41;2.60;;;2.00;;
6547;SDS011;3307;52.416;16.862;2022-10-04T13:35:42;2.20;;;1.80;;
6547;SDS011;3307;52.416;16.862;2022-10-04T13:38:30;5.50;;;2.20;;
6547;SDS011;3307;52.416;16.862;2022-10-04T13:41:22;6.33;;;2.20;;
6547;SDS011;3307;52.416;16.862;2022-10-04T13:43:54;1.80;;;1.53;;
6547;SDS011;3307;52.416;16.862;2022-10-04T13:46:41;5.27;;;2.70;;
6547;SDS011;3307;52.416;16.862;2022-10-04T13:52:25;6.93;;;2.13;;
6547;SDS011;3307;52.416;16.862;2022-10-04T13:55:25;4.00;;;2.43;;
6547;SDS011;3307;52.416;16.862;2022-10-04T13:58:17;4.00;;;2.13;;
6547;SDS011;3307;52.416;16.862;2022-10-04T14:03:31;6.00;;;2.70;;
6547;SDS011;3307;52.416;16.862;2022-10-04T14:06:27;1.95;;;1.50;;
6547;SDS011;3307;52.416;16.862;2022-10-04T14:09:21;3.90;;;1.98;;
6547;SDS011;3307;52.416;16.862;2022-10-04T14:12:07;1.87;;;1.77;;
6547;SDS011;3307;52.416;16.862;2022-10-04T14:36:45;5.73;;;2.27;;
6547;SDS011;3307;52.416;16.862;2022-10-04T14:58:02;5.60;;;1.88;;
6547;SDS011;3307;52.416;16.862;2022-10-04T15:06:34;4.45;;;2.65;;
6547;SDS011;3307;52.416;16.862;2022-10-04T15:09:14;6.47;;;2.25;;
6547;SDS011;3307;52.416;16.862;2022-10-04T15:11:49;3.47;;;2.67;;
6547;SDS011;3307;52.416;16.862;2022-10-04T15:14:32;4.32;;;2.05;;
6547;SDS011;3307;52.416;16.862;2022-10-04T15:17:00;3.90;;;2.10;;
6547;SDS011;3307;52.416;16.862;2022-10-04T15:20:14;4.85;;;2.22;;
6547;SDS011;3307;52.416;16.862;2022-10-04T15:22:45;3.05;;;2.28;;
6547;SDS011;3307;52.416;16.862;2022-10-04T15:31:33;4.53;;;2.45;;
6547;SDS011;3307;52.416;16.862;2022-10-04T15:56:41;6.75;;;3.65;;
6547;SDS011;3307;52.416;16.862;2022-10-04T15:59:21;6.90;;;3.90;;
6547;SDS011;3307;52.416;16.862;2022-10-04T16:05:02;8.85;;;4.50;;
6547;SDS011;3307;52.416;16.862;2022-10-04T16:15:45;5.28;;;3.50;;
6547;SDS011;3307;52.416;16.862;2022-10-04T16:23:32;5.10;;;3.35;;
6547;SDS011;3307;52.416;16.862;2022-10-04T16:26:08;7.65;;;3.55;;
6547;SDS011;3307;52.416;16.862;2022-10-04T16:31:21;6.80;;;3.20;;
6547;SDS011;3307;52.416;16.862;2022-10-04T16:34:00;6.43;;;4.10;;
6547;SDS011;3307;52.416;16.862;2022-10-04T16:36:51;7.80;;;4.05;;
6547;SDS011;3307;52.416;16.862;2022-10-04T16:39:32;7.35;;;4.18;;
6547;SDS011;3307;52.416;16.862;2022-10-04T16:42:18;15.98;;;11.15;;
6547;SDS011;3307;52.416;16.862;2022-10-04T16:44:49;16.85;;;12.02;;
6547;SDS011;3307;52.416;16.862;2022-10-04T16:50:03;18.55;;;13.65;;
6547;SDS011;3307;52.416;16.862;2022-10-04T16:52:41;11.77;;;9.93;;
6547;SDS011;3307;52.416;16.862;2022-10-04T17:11:44;11.70;;;10.40;;
6547;SDS011;3307;52.416;16.862;2022-10-04T17:17:00;13.95;;;11.43;;
6547;SDS011;3307;52.416;16.862;2022-10-04T17:19:31;23.13;;;16.20;;
6547;SDS011;3307;52.416;16.862;2022-10-04T17:22:14;24.73;;;14.60;;
6547;SDS011;3307;52.416;16.862;2022-10-04T17:25:00;24.02;;;19.55;;
6547;SDS011;3307;52.416;16.862;2022-10-04T17:30:21;29.75;;;22.20;;
6547;SDS011;3307;52.416;16.862;2022-10-04T17:48:39;28.63;;;21.48;;
6547;SDS011;3307;52.416;16.862;2022-10-04T17:51:46;32.83;;;20.63;;
6547;SDS011;3307;52.416;16.862;2022-10-04T17:54:39;22.33;;;19.40;;
6547;SDS011;3307;52.416;16.862;2022-10-04T18:05:17;28.27;;;21.00;;
6547;SDS011;3307;52.416;16.862;2022-10-04T18:07:53;28.63;;;21.58;;
6547;SDS011;3307;52.416;16.862;2022-10-04T18:13:54;31.08;;;25.30;;
6547;SDS011;3307;52.416;16.862;2022-10-04T18:18:50;27.70;;;21.67;;
6547;SDS011;3307;52.416;16.862;2022-10-04T18:21:28;20.53;;;18.33;;
6547;SDS011;3307;52.416;16.862;2022-10-04T18:26:20;19.27;;;17.20;;
6547;SDS011;3307;52.416;16.862;2022-10-04T18:28:47;19.98;;;16.70;;
6547;SDS011;3307;52.416;16.862;2022-10-04T18:31:18;22.08;;;17.75;;
6547;SDS011;3307;52.416;16.862;2022-10-04T18:33:51;21.15;;;16.85;;
6547;SDS011;3307;52.416;16.862;2022-10-04T18:38:59;23.00;;;17.00;;
6547;SDS011;3307;52.416;16.862;2022-10-04T18:41:28;30.15;;;19.73;;
6547;SDS011;3307;52.416;16.862;2022-10-04T18:44:14;26.52;;;19.98;;
6547;SDS011;3307;52.416;16.862;2022-10-04T18:46:41;24.10;;;20.00;;
6547;SDS011;3307;52.416;16.862;2022-10-04T18:49:20;29.38;;;20.05;;
6547;SDS011;3307;52.416;16.862;2022-10-04T19:00:23;23.52;;;16.83;;
6547;SDS011;3307;52.416;16.862;2022-10-04T19:08:38;19.80;;;16.58;;
6547;SDS011;3307;52.416;16.862;2022-10-04T19:11:08;21.90;;;16.60;;
6547;SDS011;3307;52.416;16.862;2022-10-04T19:13:44;20.70;;;15.45;;
6547;SDS011;3307;52.416;16.862;2022-10-04T19:26:16;24.05;;;15.77;;
6547;SDS011;3307;52.416;16.862;2022-10-04T19:28:27;21.83;;;18.23;;
6547;SDS011;3307;52.416;16.862;2022-10-04T19:33:49;19.92;;;14.13;;
6547;SDS011;3307;52.416;16.862;2022-10-04T19:41:47;16.73;;;13.50;;
6547;SDS011;3307;52.416;16.862;2022-10-04T19:49:51;21.42;;;16.67;;
6547;SDS011;3307;52.416;16.862;2022-10-04T19:55:14;20.05;;;15.60;;
6547;SDS011;3307;52.416;16.862;2022-10-04T19:57:42;21.30;;;15.20;;
6547;SDS011;3307;52.416;16.862;2022-10-04T20:00:12;22.17;;;16.65;;
6547;SDS011;3307;52.416;16.862;2022-10-04T20:02:40;19.98;;;16.73;;
6547;SDS011;3307;52.416;16.862;2022-10-04T20:05:13;24.50;;;17.05;;
6547;SDS011;3307;52.416;16.862;2022-10-04T20:07:40;25.33;;;17.70;;
6547;SDS011;3307;52.416;16.862;2022-10-04T20:10:29;21.70;;;17.13;;
6547;SDS011;3307;52.416;16.862;2022-10-04T20:26:08;23.08;;;18.73;;
6547;SDS011;3307;52.416;16.862;2022-10-04T20:28:36;20.75;;;17.00;;
6547;SDS011;3307;52.416;16.862;2022-10-04T20:33:49;19.95;;;17.88;;
6547;SDS011;3307;52.416;16.862;2022-10-04T20:43:53;23.17;;;17.30;;
6547;SDS011;3307;52.416;16.862;2022-10-04T20:46:27;19.02;;;16.77;;
6547;SDS011;3307;52.416;16.862;2022-10-04T20:49:24;26.10;;;18.30;;
6547;SDS011;3307;52.416;16.862;2022-10-04T20:51:49;24.25;;;18.95;;
6547;SDS011;3307;52.416;16.862;2022-10-04T20:54:18;25.83;;;18.30;;
6547;SDS011;3307;52.416;16.862;2022-10-04T20:56:47;22.88;;;18.77;;
6547;SDS011;3307;52.416;16.862;2022-10-04T20:59:14;27.52;;;20.00;;
6547;SDS011;3307;52.416;16.862;2022-10-04T21:01:41;30.45;;;18.73;;
6547;SDS011;3307;52.416;16.862;2022-10-04T21:04:28;25.83;;;21.23;;
6547;SDS011;3307;52.416;16.862;2022-10-04T21:06:55;30.10;;;20.65;;
6547;SDS011;3307;52.416;16.862;2022-10-04T21:09:21;25.88;;;19.60;;
6547;SDS011;3307;52.416;16.862;2022-10-04T21:11:51;22.38;;;19.15;;
6547;SDS011;3307;52.416;16.862;2022-10-04T21:14:21;23.30;;;19.15;;
6547;SDS011;3307;52.416;16.862;2022-10-04T21:19:52;25.92;;;20.20;;
6547;SDS011;3307;52.416;16.862;2022-10-04T21:27:24;23.90;;;18.58;;
6547;SDS011;3307;52.416;16.862;2022-10-04T21:32:34;21.75;;;17.15;;
6547;SDS011;3307;52.416;16.862;2022-10-04T21:35:00;22.58;;;19.05;;
6547;SDS011;3307;52.416;16.862;2022-10-04T21:37:27;23.50;;;20.00;;
6547;SDS011;3307;52.416;16.862;2022-10-04T21:39:53;26.77;;;20.55;;
6547;SDS011;3307;52.416;16.862;2022-10-04T21:42:18;26.53;;;19.93;;
6547;SDS011;3307;52.416;16.862;2022-10-04T21:44:44;27.10;;;18.53;;
6547;SDS011;3307;52.416;16.862;2022-10-04T21:47:09;31.33;;;21.57;;
6547;SDS011;3307;52.416;16.862;2022-10-04T21:49:35;25.20;;;19.60;;
6547;SDS011;3307;52.416;16.862;2022-10-04T21:52:00;29.57;;;22.57;;
6547;SDS011;3307;52.416;16.862;2022-10-04T21:54:26;26.53;;;19.93;;
6547;SDS011;3307;52.416;16.862;2022-10-04T21:56:52;32.37;;;21.37;;
6547;SDS011;3307;52.416;16.862;2022-10-04T21:59:18;32.80;;;23.37;;
6547;SDS011;3307;52.416;16.862;2022-10-04T22:01:44;30.88;;;23.30;;
6547;SDS011;3307;52.416;16.862;2022-10-04T22:04:09;28.40;;;22.93;;
6547;SDS011;3307;52.416;16.862;2022-10-04T22:06:34;41.33;;;27.97;;
6547;SDS011;3307;52.416;16.862;2022-10-04T22:09:00;35.57;;;29.33;;
6547;SDS011;3307;52.416;16.862;2022-10-04T22:11:25;40.97;;;32.03;;
6547;SDS011;3307;52.416;16.862;2022-10-04T22:13:54;45.53;;;36.73;;
6547;SDS011;3307;52.416;16.862;2022-10-04T22:16:22;47.78;;;36.70;;
6547;SDS011;3307;52.416;16.862;2022-10-04T22:18:47;46.88;;;35.65;;
6547;SDS011;3307;52.416;16.862;2022-10-04T22:21:13;47.13;;;35.73;;
6547;SDS011;3307;52.416;16.862;2022-10-04T22:23:39;43.20;;;34.27;;
6547;SDS011;3307;52.416;16.862;2022-10-04T22:26:15;48.83;;;39.00;;
6547;SDS011;3307;52.416;16.862;2022-10-04T22:28:43;45.47;;;38.72;;
6547;SDS011;3307;52.416;16.862;2022-10-04T22:31:14;47.45;;;39.95;;
6547;SDS011;3307;52.416;16.862;2022-10-04T22:33:42;53.25;;;40.65;;
6547;SDS011;3307;52.416;16.862;2022-10-04T22:38:43;46.95;;;37.80;;
6547;SDS011;3307;52.416;16.862;2022-10-04T22:41:13;48.75;;;40.20;;
6547;SDS011;3307;52.416;16.862;2022-10-04T22:43:40;45.83;;;39.42;;
6547;SDS011;3307;52.416;16.862;2022-10-04T22:46:13;45.67;;;37.80;;
6547;SDS011;3307;52.416;16.862;2022-10-04T22:48:40;47.33;;;40.50;;
6547;SDS011;3307;52.416;16.862;2022-10-04T22:51:08;49.55;;;40.92;;
6547;SDS011;3307;52.416;16.862;2022-10-04T22:53:35;54.28;;;41.88;;
6547;SDS011;3307;52.416;16.862;2022-10-04T22:56:00;49.30;;;40.73;;
6547;SDS011;3307;52.416;16.862;2022-10-04T22:58:26;52.67;;;43.60;;
6547;SDS011;3307;52.416;16.862;2022-10-04T23:00:51;51.17;;;42.30;;
6547;SDS011;3307;52.416;16.862;2022-10-04T23:03:26;51.50;;;42.70;;
6547;SDS011;3307;52.416;16.862;2022-10-04T23:05:54;52.42;;;41.28;;
6547;SDS011;3307;52.416;16.862;2022-10-04T23:08:20;53.60;;;43.30;;
6547;SDS011;3307;52.416;16.862;2022-10-04T23:10:45;47.77;;;40.10;;
6547;SDS011;3307;52.416;16.862;2022-10-04T23:13:11;48.70;;;39.00;;
6547;SDS011;3307;52.416;16.862;2022-10-04T23:15:36;42.97;;;36.77;;
6547;SDS011;3307;52.416;16.862;2022-10-04T23:18:04;46.63;;;39.10;;
6547;SDS011;3307;52.416;16.862;2022-10-04T23:20:37;50.63;;;41.40;;
6547;SDS011;3307;52.416;16.862;2022-10-04T23:23:04;47.20;;;37.93;;
6547;SDS011;3307;52.416;16.862;2022-10-04T23:25:41;46.67;;;38.85;;
6547;SDS011;3307;52.416;16.862;2022-10-04T23:28:15;46.60;;;40.33;;
6547;SDS011;3307;52.416;16.862;2022-10-04T23:30:42;53.65;;;41.67;;
6547;SDS011;3307;52.416;16.862;2022-10-04T23:33:20;56.63;;;46.15;;
6547;SDS011;3307;52.416;16.862;2022-10-04T23:35:46;53.70;;;44.17;;
6547;SDS011;3307;52.416;16.862;2022-10-04T23:38:13;50.30;;;43.70;;
6547;SDS011;3307;52.416;16.862;2022-10-04T23:40:40;47.72;;;42.08;;
6547;SDS011;3307;52.416;16.862;2022-10-04T23:43:07;50.03;;;41.37;;
6547;SDS011;3307;52.416;16.862;2022-10-04T23:45:37;47.22;;;37.78;;
6547;SDS011;3307;52.416;16.862;2022-10-04T23:48:07;43.95;;;37.17;;
6547;SDS011;3307;52.416;16.862;2022-10-04T23:50:34;48.22;;;37.28;;
6547;SDS011;3307;52.416;16.862;2022-10-04T23:53:02;44.00;;;37.05;;
6547;SDS011;3307;52.416;16.862;2022-10-04T23:55:34;40.22;;;33.97;;
6547;SDS011;3307;52.416;16.862;2022-10-04T23:58:01;39.03;;;32.33;;
